Time;durP1;ratioP1;P1;durP2;ratioP2;P2;SDS_P1;SDS_P2;PMS_P1;PMS_P2;Temp;Humidity;BMP_temperature;BMP_pressure;BME280_temperature;BME280_humidity;BME280_pressure;Samples;Min_cycle;Max_cycle;Signal;HPM_P1;HPM_P2
2022/07/12 00:02:16;;;;;;;2.75;1.50;;;;;;;;;;5050912;28;20567;-65
2022/07/12 00:04:41;;;;;;;3.17;1.30;;;;;;;;;;5051579;28;20610;-65
2022/07/12 00:07:06;;;;;;;3.15;1.23;;;;;;;;;;5050582;28;20216;-65
2022/07/12 00:09:32;;;;;;;2.42;1.25;;;;;;;;;;5051837;28;20242;-65
2022/07/12 00:11:57;;;;;;;5.97;1.40;;;;;;;;;;5052066;28;20256;-65
2022/07/12 00:14:23;;;;;;;2.33;1.38;;;;;;;;;;5051262;28;20216;-65
2022/07/12 00:16:48;;;;;;;2.88;1.50;;;;;;;;;;5035575;28;20220;-65
2022/07/12 00:19:14;;;;;;;3.03;1.67;;;;;;;;;;5035034;28;20220;-65
2022/07/12 00:21:39;;;;;;;2.35;1.50;;;;;;;;;;5034632;28;20230;-65
2022/07/12 00:24:04;;;;;;;3.53;1.60;;;;;;;;;;5034896;28;20215;-65
2022/07/12 00:26:29;;;;;;;2.55;1.40;;;;;;;;;;5035289;28;20612;-65
2022/07/12 00:28:56;;;;;;;1.83;1.33;;;;;;;;;;5034245;28;20207;-65
2022/07/12 00:31:21;;;;;;;2.88;1.40;;;;;;;;;;5034530;28;20268;-65
2022/07/12 00:33:47;;;;;;;4.45;1.40;;;;;;;;;;5035280;28;20294;-65
2022/07/12 00:36:12;;;;;;;4.35;1.50;;;;;;;;;;5033760;28;20232;-65
2022/07/12 00:38:37;;;;;;;3.58;1.40;;;;;;;;;;5035137;28;20666;-65
2022/07/12 00:41:03;;;;;;;3.38;1.38;;;;;;;;;;5034647;28;20663;-65
2022/07/12 00:43:28;;;;;;;2.97;1.50;;;;;;;;;;5016426;28;20546;-65
2022/07/12 00:45:53;;;;;;;2.63;1.50;;;;;;;;;;5035138;28;20298;-65
2022/07/12 00:48:18;;;;;;;1.50;1.40;;;;;;;;;;5034733;28;20240;-65
2022/07/12 00:50:45;;;;;;;2.92;1.80;;;;;;;;;;5033979;28;20222;-65
2022/07/12 00:53:11;;;;;;;2.63;1.38;;;;;;;;;;5034335;28;20287;-65
2022/07/12 00:55:37;;;;;;;2.03;1.30;;;;;;;;;;5016832;28;20235;-65
2022/07/12 00:58:02;;;;;;;4.85;1.50;;;;;;;;;;5033462;28;20211;-65
2022/07/12 01:00:28;;;;;;;3.47;1.55;;;;;;;;;;5034837;28;20581;-65
2022/07/12 01:02:54;;;;;;;2.95;1.60;;;;;;;;;;5034691;28;20573;-64
2022/07/12 01:05:19;;;;;;;2.67;1.90;;;;;;;;;;5033064;28;20227;-65
2022/07/12 01:07:45;;;;;;;3.08;1.90;;;;;;;;;;5034402;28;20207;-64
2022/07/12 01:10:10;;;;;;;3.05;1.80;;;;;;;;;;5033900;28;20214;-65
2022/07/12 01:12:36;;;;;;;2.33;1.92;;;;;;;;;;5016364;28;20235;-64
2022/07/12 01:15:01;;;;;;;2.13;1.65;;;;;;;;;;5033574;28;20204;-64
2022/07/12 01:17:26;;;;;;;4.32;1.70;;;;;;;;;;5033750;28;20228;-63
2022/07/12 01:19:52;;;;;;;2.25;1.73;;;;;;;;;;5025601;28;20266;-63
2022/07/12 01:22:18;;;;;;;4.22;1.90;;;;;;;;;;5002483;28;20611;-63
2022/07/12 01:24:44;;;;;;;2.17;1.52;;;;;;;;;;5022156;28;20220;-63
2022/07/12 01:27:09;;;;;;;2.45;1.52;;;;;;;;;;5023999;28;20542;-63
2022/07/12 01:29:35;;;;;;;2.20;1.45;;;;;;;;;;5035318;28;20212;-63
2022/07/12 01:32:24;;;;;;;3.95;2.00;;;;;;;;;;5023871;28;20204;-63
2022/07/12 01:34:47;;;;;;;3.83;1.95;;;;;;;;;;5009542;28;20212;-62
2022/07/12 01:37:13;;;;;;;2.13;1.60;;;;;;;;;;5030822;28;20669;-63
2022/07/12 01:39:38;;;;;;;2.70;1.80;;;;;;;;;;5023225;28;20215;-63
2022/07/12 01:42:04;;;;;;;3.28;2.15;;;;;;;;;;5023258;28;20270;-63
2022/07/12 01:44:29;;;;;;;2.63;1.75;;;;;;;;;;5024135;28;20212;-63
2022/07/12 01:46:54;;;;;;;4.95;2.03;;;;;;;;;;5022856;28;20234;-62
2022/07/12 01:49:19;;;;;;;2.13;1.92;;;;;;;;;;5023565;28;20687;-62
2022/07/12 01:51:45;;;;;;;2.90;1.83;;;;;;;;;;5023396;28;20247;-62
2022/07/12 01:54:10;;;;;;;2.53;1.60;;;;;;;;;;5022557;28;20220;-62
2022/07/12 01:56:35;;;;;;;3.45;1.80;;;;;;;;;;5023294;28;20701;-63
2022/07/12 01:59:01;;;;;;;2.47;1.92;;;;;;;;;;5023205;28;20306;-63
2022/07/12 02:01:26;;;;;;;2.38;1.90;;;;;;;;;;5023158;28;20208;-63
2022/07/12 02:03:51;;;;;;;4.18;2.10;;;;;;;;;;5006118;28;20293;-62
2022/07/12 02:06:16;;;;;;;3.83;2.35;;;;;;;;;;5022900;28;20212;-62
2022/07/12 02:08:42;;;;;;;2.95;1.95;;;;;;;;;;5022841;28;20311;-62
2022/07/12 02:11:08;;;;;;;2.55;2.00;;;;;;;;;;5022948;28;20216;-63
2022/07/12 02:13:33;;;;;;;3.38;2.30;;;;;;;;;;5022888;28;20219;-63
2022/07/12 02:15:59;;;;;;;3.42;2.28;;;;;;;;;;5007198;28;20251;-63
2022/07/12 02:18:24;;;;;;;3.40;2.00;;;;;;;;;;5003077;28;20310;-63
2022/07/12 02:20:49;;;;;;;3.42;1.88;;;;;;;;;;5003399;28;20231;-62
2022/07/12 02:23:15;;;;;;;3.60;2.17;;;;;;;;;;5003359;28;20627;-63
2022/07/12 02:25:40;;;;;;;2.88;2.10;;;;;;;;;;5004064;28;20239;-62
2022/07/12 02:28:06;;;;;;;3.10;2.13;;;;;;;;;;5007643;28;20682;-63
2022/07/12 02:30:31;;;;;;;3.58;2.00;;;;;;;;;;5004035;28;20231;-62
2022/07/12 02:32:56;;;;;;;2.65;2.00;;;;;;;;;;5003748;28;20219;-62
2022/07/12 02:35:22;;;;;;;3.70;1.90;;;;;;;;;;5001356;28;20262;-63
2022/07/12 02:37:47;;;;;;;2.80;1.95;;;;;;;;;;5003708;28;20228;-63
2022/07/12 02:42:59;;;;;;;2.38;1.77;;;;;;;;;;5021764;28;20322;-62
2022/07/12 02:45:24;;;;;;;3.55;1.92;;;;;;;;;;5022483;28;20298;-63
2022/07/12 02:47:49;;;;;;;2.72;1.80;;;;;;;;;;5022481;28;20746;-63
2022/07/12 02:50:14;;;;;;;2.80;2.30;;;;;;;;;;5021443;28;20246;-62
2022/07/12 02:52:40;;;;;;;2.70;1.98;;;;;;;;;;5022496;28;20546;-62
2022/07/12 02:55:05;;;;;;;3.55;2.42;;;;;;;;;;5021867;28;20571;-63
2022/07/12 02:57:30;;;;;;;3.20;2.28;;;;;;;;;;5022276;28;20683;-62
2022/07/12 02:59:56;;;;;;;4.40;2.50;;;;;;;;;;5002335;28;20627;-63
2022/07/12 03:02:21;;;;;;;2.88;2.00;;;;;;;;;;5002925;28;20430;-62
2022/07/12 03:04:46;;;;;;;2.55;2.17;;;;;;;;;;5001966;28;20270;-62
2022/07/12 03:07:12;;;;;;;3.90;2.58;;;;;;;;;;5002683;28;20212;-62
2022/07/12 03:09:37;;;;;;;2.90;2.15;;;;;;;;;;5003115;28;20216;-63
2022/07/12 03:12:02;;;;;;;3.20;2.22;;;;;;;;;;5001796;28;20262;-62
2022/07/12 03:14:28;;;;;;;4.22;2.40;;;;;;;;;;5003530;28;20204;-62
2022/07/12 03:16:53;;;;;;;3.40;2.45;;;;;;;;;;5002068;28;20334;-62
2022/07/12 03:19:19;;;;;;;3.42;2.42;;;;;;;;;;5002811;28;20227;-63
2022/07/12 03:21:44;;;;;;;2.97;2.10;;;;;;;;;;5002617;28;20251;-63
2022/07/12 03:24:10;;;;;;;3.50;2.15;;;;;;;;;;5002110;28;20227;-62
2022/07/12 03:26:35;;;;;;;3.03;2.00;;;;;;;;;;5003076;28;20682;-62
2022/07/12 03:29:00;;;;;;;4.30;2.50;;;;;;;;;;5014810;28;20214;-62
2022/07/12 03:31:26;;;;;;;5.47;3.10;;;;;;;;;;5002830;28;20667;-63
2022/07/12 03:33:51;;;;;;;5.07;2.80;;;;;;;;;;5022056;28;20475;-62
2022/07/12 03:36:17;;;;;;;4.15;2.50;;;;;;;;;;5021448;28;20641;-63
2022/07/12 03:38:42;;;;;;;3.67;2.20;;;;;;;;;;5021763;28;20246;-62
2022/07/12 03:41:08;;;;;;;4.53;2.50;;;;;;;;;;5021720;28;20658;-62
2022/07/12 03:43:33;;;;;;;3.55;2.30;;;;;;;;;;5022154;28;20231;-62
2022/07/12 03:45:59;;;;;;;4.00;2.58;;;;;;;;;;5022174;28;20215;-62
2022/07/12 03:48:24;;;;;;;3.40;2.88;;;;;;;;;;5025581;28;20223;-62
2022/07/12 03:50:50;;;;;;;3.83;2.90;;;;;;;;;;5026539;28;20207;-62
2022/07/12 03:53:15;;;;;;;3.65;2.85;;;;;;;;;;5024483;28;20320;-62
2022/07/12 03:55:40;;;;;;;4.63;3.17;;;;;;;;;;5026258;28;20250;-63
2022/07/12 03:58:06;;;;;;;4.75;2.80;;;;;;;;;;5025072;28;20580;-62
2022/07/12 04:00:31;;;;;;;2.55;2.10;;;;;;;;;;5025410;28;20765;-62
2022/07/12 04:02:56;;;;;;;3.35;2.30;;;;;;;;;;5025641;28;20260;-62
2022/07/12 04:05:25;;;;;;;5.63;3.13;;;;;;;;;;5025486;28;20307;-62
2022/07/12 04:07:50;;;;;;;4.15;3.08;;;;;;;;;;5025200;28;20212;-62
2022/07/12 04:10:16;;;;;;;4.45;3.05;;;;;;;;;;5024947;28;20215;-62
2022/07/12 04:12:41;;;;;;;5.63;3.10;;;;;;;;;;5025818;28;20616;-62
2022/07/12 04:15:08;;;;;;;3.47;2.90;;;;;;;;;;5015073;28;20208;-62
2022/07/12 04:17:33;;;;;;;3.47;2.65;;;;;;;;;;5006028;28;20236;-62
2022/07/12 04:19:58;;;;;;;3.22;2.40;;;;;;;;;;5006555;28;20217;-62
2022/07/12 04:22:24;;;;;;;3.50;2.88;;;;;;;;;;5004837;28;20690;-62
2022/07/12 04:24:49;;;;;;;3.50;2.55;;;;;;;;;;5006285;28;20208;-62
2022/07/12 04:27:14;;;;;;;3.10;2.60;;;;;;;;;;5004148;28;21217;-62
2022/07/12 04:29:39;;;;;;;3.90;3.00;;;;;;;;;;5019223;28;20216;-61
2022/07/12 04:32:05;;;;;;;5.03;3.60;;;;;;;;;;5004106;28;20562;-64
2022/07/12 04:34:30;;;;;;;5.88;4.45;;;;;;;;;;5005166;28;20249;-63
2022/07/12 04:36:55;;;;;;;6.43;4.18;;;;;;;;;;5006498;28;20231;-64
2022/07/12 04:39:21;;;;;;;8.90;4.80;;;;;;;;;;5006611;28;20224;-62
2022/07/12 04:41:46;;;;;;;5.57;4.53;;;;;;;;;;5005842;28;20208;-62
2022/07/12 04:44:12;;;;;;;6.55;4.55;;;;;;;;;;5005473;28;20216;-63
2022/07/12 04:46:37;;;;;;;5.53;4.00;;;;;;;;;;5006451;28;20244;-62
2022/07/12 04:49:02;;;;;;;8.57;3.85;;;;;;;;;;5004793;28;20216;-63
2022/07/12 04:51:28;;;;;;;6.10;4.03;;;;;;;;;;5006042;28;20212;-62
2022/07/12 04:53:53;;;;;;;4.90;4.07;;;;;;;;;;5006264;28;20216;-62
2022/07/12 04:56:18;;;;;;;5.68;3.85;;;;;;;;;;5004814;28;20271;-63
2022/07/12 04:58:44;;;;;;;5.85;4.10;;;;;;;;;;5005078;28;20212;-63
2022/07/12 05:01:09;;;;;;;5.70;3.80;;;;;;;;;;5005817;28;20303;-63
2022/07/12 05:03:34;;;;;;;4.50;3.78;;;;;;;;;;5019077;28;20699;-63
2022/07/12 05:06:00;;;;;;;3.60;2.90;;;;;;;;;;5018883;28;20205;-62
2022/07/12 05:08:25;;;;;;;6.45;3.20;;;;;;;;;;5008991;28;20302;-63
2022/07/12 05:10:50;;;;;;;4.30;3.00;;;;;;;;;;5022069;28;20588;-62
2022/07/12 05:13:16;;;;;;;6.72;3.72;;;;;;;;;;5033360;28;20261;-63
2022/07/12 05:15:41;;;;;;;5.57;3.20;;;;;;;;;;5034310;28;20216;-62
2022/07/12 05:18:06;;;;;;;6.28;5.57;;;;;;;;;;5033042;28;20216;-63
2022/07/12 05:20:32;;;;;;;6.90;6.20;;;;;;;;;;5034269;28;20204;-62
2022/07/12 05:22:57;;;;;;;8.65;7.85;;;;;;;;;;5033960;28;20215;-62
2022/07/12 05:25:22;;;;;;;10.93;8.52;;;;;;;;;;5033320;28;20211;-61
2022/07/12 05:27:47;;;;;;;9.88;8.88;;;;;;;;;;5032587;28;20220;-62
2022/07/12 05:30:13;;;;;;;10.70;9.35;;;;;;;;;;5042333;28;20293;-62
2022/07/12 05:32:38;;;;;;;8.65;7.85;;;;;;;;;;5033230;28;20337;-62
2022/07/12 05:35:04;;;;;;;8.07;7.28;;;;;;;;;;5033744;28;20204;-62
2022/07/12 05:37:29;;;;;;;9.25;8.35;;;;;;;;;;5033845;28;20216;-62
2022/07/12 05:39:54;;;;;;;9.63;8.75;;;;;;;;;;5033379;28;20290;-63
2022/07/12 05:42:20;;;;;;;10.60;9.50;;;;;;;;;;5033644;28;20226;-63
2022/07/12 05:44:45;;;;;;;9.93;8.57;;;;;;;;;;5033024;28;20208;-62
2022/07/12 05:47:11;;;;;;;8.43;7.60;;;;;;;;;;5033514;28;20204;-62
2022/07/12 05:49:36;;;;;;;8.82;7.93;;;;;;;;;;5033618;28;20212;-62
2022/07/12 05:54:45;;;;;;;9.88;8.88;;;;;;;;;;5032718;28;20436;-64
2022/07/12 05:57:11;;;;;;;9.88;8.55;;;;;;;;;;5033397;28;20302;-62
2022/07/12 05:59:36;;;;;;;8.60;7.80;;;;;;;;;;5032692;28;20216;-62
2022/07/12 06:02:01;;;;;;;9.20;7.78;;;;;;;;;;5033040;28;20204;-63
2022/07/12 06:04:27;;;;;;;9.63;8.65;;;;;;;;;;5047588;28;20310;-63
2022/07/12 06:06:52;;;;;;;8.63;7.63;;;;;;;;;;5052069;28;20257;-63
2022/07/12 06:09:17;;;;;;;8.43;7.63;;;;;;;;;;5047401;28;20258;-63
2022/07/12 06:11:42;;;;;;;8.65;7.85;;;;;;;;;;5053304;28;20211;-63
2022/07/12 06:14:08;;;;;;;8.80;7.90;;;;;;;;;;5051823;28;20231;-63
2022/07/12 06:16:33;;;;;;;8.98;8.02;;;;;;;;;;5053157;28;20647;-63
2022/07/12 06:18:58;;;;;;;9.82;8.85;;;;;;;;;;5053242;28;20206;-63
2022/07/12 06:21:24;;;;;;;9.45;8.48;;;;;;;;;;5051546;28;20203;-63
2022/07/12 06:23:49;;;;;;;9.75;8.70;;;;;;;;;;5045342;28;20207;-61
2022/07/12 06:26:14;;;;;;;9.55;8.65;;;;;;;;;;5041099;28;20219;-61
2022/07/12 06:28:41;;;;;;;8.55;7.75;;;;;;;;;;5042395;28;20207;-62
2022/07/12 06:31:06;;;;;;;7.70;6.90;;;;;;;;;;5044245;28;20207;-63
2022/07/12 06:33:31;;;;;;;8.98;8.13;;;;;;;;;;5028408;28;20267;-63
2022/07/12 06:35:57;;;;;;;8.43;7.63;;;;;;;;;;5012497;28;20310;-63
2022/07/12 06:38:22;;;;;;;8.60;7.43;;;;;;;;;;5012252;28;20306;-64
2022/07/12 06:40:47;;;;;;;10.02;8.63;;;;;;;;;;5013376;28;20208;-64
2022/07/12 06:43:13;;;;;;;7.55;6.85;;;;;;;;;;5012182;28;20683;-64
2022/07/12 06:45:39;;;;;;;7.20;6.50;;;;;;;;;;5012890;28;20209;-63
2022/07/12 06:48:05;;;;;;;9.13;8.23;;;;;;;;;;5010705;28;20211;-64
2022/07/12 06:50:30;;;;;;;9.30;8.25;;;;;;;;;;5013137;28;20304;-63
2022/07/12 06:52:56;;;;;;;8.60;7.70;;;;;;;;;;5012664;28;20236;-63
2022/07/12 06:55:21;;;;;;;8.52;7.55;;;;;;;;;;5011998;28;20311;-64
2022/07/12 06:57:47;;;;;;;8.48;7.68;;;;;;;;;;5012954;28;20303;-64
2022/07/12 07:00:12;;;;;;;9.68;8.77;;;;;;;;;;5012254;28;20221;-63
2022/07/12 07:02:38;;;;;;;8.43;7.63;;;;;;;;;;5012224;28;20275;-64
2022/07/12 07:05:03;;;;;;;9.77;7.45;;;;;;;;;;5012497;28;20224;-64
2022/07/12 07:07:29;;;;;;;8.15;6.82;;;;;;;;;;5012664;28;20687;-63
2022/07/12 07:09:54;;;;;;;7.60;6.90;;;;;;;;;;5013476;28;20234;-64
2022/07/12 07:12:19;;;;;;;8.63;7.75;;;;;;;;;;5051319;28;20218;-64
2022/07/12 07:14:45;;;;;;;8.70;7.80;;;;;;;;;;5049197;28;20215;-63
2022/07/12 07:17:10;;;;;;;8.18;7.35;;;;;;;;;;5036248;28;20234;-63
2022/07/12 07:19:36;;;;;;;8.13;7.32;;;;;;;;;;5052289;28;20229;-64
2022/07/12 07:22:01;;;;;;;7.32;6.18;;;;;;;;;;5055652;28;20211;-64
2022/07/12 07:24:27;;;;;;;7.55;6.85;;;;;;;;;;5058396;28;20679;-64
2022/07/12 07:26:52;;;;;;;7.95;7.13;;;;;;;;;;5059065;28;20211;-64
2022/07/12 07:32:01;;;;;;;7.13;5.70;;;;;;;;;;5041099;28;20214;-64
2022/07/12 07:34:26;;;;;;;6.47;5.72;;;;;;;;;;5047387;28;20203;-63
2022/07/12 07:36:52;;;;;;;6.72;5.68;;;;;;;;;;5038241;28;20227;-63
2022/07/12 07:39:17;;;;;;;8.55;6.07;;;;;;;;;;5037697;28;20242;-64
2022/07/12 07:41:42;;;;;;;6.85;5.07;;;;;;;;;;5038725;28;20697;-64
2022/07/12 07:44:08;;;;;;;6.10;5.45;;;;;;;;;;5038030;28;20203;-65
2022/07/12 07:46:33;;;;;;;6.85;5.40;;;;;;;;;;5038546;28;20215;-64
2022/07/12 07:48:58;;;;;;;6.18;5.05;;;;;;;;;;5038726;28;20207;-64
2022/07/12 07:51:24;;;;;;;6.45;4.35;;;;;;;;;;5037421;28;20283;-64
2022/07/12 07:53:49;;;;;;;7.03;4.50;;;;;;;;;;5021244;28;20682;-64
2022/07/12 07:56:14;;;;;;;7.40;4.63;;;;;;;;;;5038155;28;20270;-63
2022/07/12 07:58:40;;;;;;;7.55;4.88;;;;;;;;;;5037811;28;20259;-63
2022/07/12 08:01:05;;;;;;;8.27;4.72;;;;;;;;;;5038232;28;20208;-64
2022/07/12 08:03:30;;;;;;;5.60;4.72;;;;;;;;;;5038238;28;20589;-65
2022/07/12 08:05:57;;;;;;;5.72;4.97;;;;;;;;;;5037707;28;20219;-64
2022/07/12 08:08:22;;;;;;;4.90;3.45;;;;;;;;;;5038059;28;20204;-63
2022/07/12 08:10:49;;;;;;;5.60;4.65;;;;;;;;;;5038366;28;20207;-63
2022/07/12 08:13:15;;;;;;;8.50;4.28;;;;;;;;;;5019436;28;20649;-64
2022/07/12 08:15:40;;;;;;;5.47;4.03;;;;;;;;;;5038227;28;20239;-63
2022/07/12 08:18:06;;;;;;;5.13;3.97;;;;;;;;;;5037837;28;20216;-64
2022/07/12 08:20:31;;;;;;;5.10;4.07;;;;;;;;;;5037952;28;20200;-63
2022/07/12 08:22:56;;;;;;;7.72;4.22;;;;;;;;;;5038185;28;20207;-64
2022/07/12 08:25:22;;;;;;;4.85;3.35;;;;;;;;;;5038141;28;20714;-64
2022/07/12 08:27:47;;;;;;;5.72;4.45;;;;;;;;;;5037397;28;20207;-64
2022/07/12 08:30:12;;;;;;;5.53;4.18;;;;;;;;;;5038133;28;20243;-63
2022/07/12 08:32:42;;;;;;;6.65;4.28;;;;;;;;;;5036568;28;20312;-64
2022/07/12 08:35:08;;;;;;;5.40;3.50;;;;;;;;;;5034247;28;20283;-64
2022/07/12 08:37:33;;;;;;;6.63;3.70;;;;;;;;;;5034988;28;20311;-64
2022/07/12 08:39:58;;;;;;;8.02;3.97;;;;;;;;;;5035072;28;20630;-63
2022/07/12 08:42:24;;;;;;;7.45;4.00;;;;;;;;;;5033980;28;20222;-64
2022/07/12 08:45:08;;;;;;;5.43;3.70;;;;;;;;;;5035167;28;20204;-64
2022/07/12 08:47:33;;;;;;;5.47;4.28;;;;;;;;;;5041077;28;20211;-63
2022/07/12 08:50:10;;;;;;;6.97;3.55;;;;;;;;;;5043212;28;20269;-64
2022/07/12 08:52:36;;;;;;;7.22;4.40;;;;;;;;;;5041418;28;20223;-64
2022/07/12 08:55:01;;;;;;;4.93;3.50;;;;;;;;;;5024131;28;20207;-64
2022/07/12 08:57:30;;;;;;;7.32;3.40;;;;;;;;;;5017254;28;20232;-63
2022/07/12 08:59:59;;;;;;;5.93;2.88;;;;;;;;;;5017158;28;20622;-64
2022/07/12 09:02:24;;;;;;;4.70;3.13;;;;;;;;;;5033622;28;20215;-64
2022/07/12 09:05:00;;;;;;;4.80;3.42;;;;;;;;;;5034519;28;20277;-64
2022/07/12 09:07:25;;;;;;;7.53;3.55;;;;;;;;;;5016464;28;20211;-63
2022/07/12 09:09:50;;;;;;;6.07;3.58;;;;;;;;;;5016020;28;20269;-64
2022/07/12 09:12:47;;;;;;;5.80;3.78;;;;;;;;;;5034236;28;20682;-64
2022/07/12 09:15:13;;;;;;;5.85;2.88;;;;;;;;;;5031144;28;20222;-63
2022/07/12 09:17:39;;;;;;;5.75;3.13;;;;;;;;;;5015952;28;20215;-64
2022/07/12 09:20:05;;;;;;;4.43;2.20;;;;;;;;;;5033731;28;20237;-64
2022/07/12 09:22:30;;;;;;;3.95;3.15;;;;;;;;;;5034401;28;20212;-64
2022/07/12 09:24:55;;;;;;;3.42;2.17;;;;;;;;;;5033542;28;20216;-64
2022/07/12 09:27:27;;;;;;;3.42;1.70;;;;;;;;;;5033885;28;20219;-63
2022/07/12 09:29:52;;;;;;;3.42;1.85;;;;;;;;;;5033303;28;20203;-63
2022/07/12 09:37:44;;;;;;;1.85;1.50;;;;;;;;;;5033383;28;20223;-63
2022/07/12 09:40:10;;;;;;;3.33;1.80;;;;;;;;;;5033416;28;20220;-64
2022/07/12 09:42:35;;;;;;;3.28;1.88;;;;;;;;;;5034192;28;20208;-64
2022/07/12 09:45:01;;;;;;;6.05;1.98;;;;;;;;;;5032676;28;20211;-66
2022/07/12 09:47:26;;;;;;;4.00;1.90;;;;;;;;;;5033995;28;20272;-64
2022/07/12 09:49:52;;;;;;;3.75;1.90;;;;;;;;;;5033610;28;20627;-63
2022/07/12 09:52:24;;;;;;;2.35;1.20;;;;;;;;;;5032943;28;20219;-63
2022/07/12 09:54:50;;;;;;;3.03;1.92;;;;;;;;;;5033597;28;20597;-64
2022/07/12 09:57:19;;;;;;;3.28;1.70;;;;;;;;;;5033017;28;20306;-63
2022/07/12 09:59:45;;;;;;;6.65;2.33;;;;;;;;;;5032676;28;20226;-64
2022/07/12 10:02:15;;;;;;;4.93;2.22;;;;;;;;;;5015725;28;20207;-65
2022/07/12 10:04:40;;;;;;;3.25;1.75;;;;;;;;;;5033296;28;20227;-63
2022/07/12 10:07:05;;;;;;;2.53;2.00;;;;;;;;;;5032484;28;20675;-64
2022/07/12 10:09:30;;;;;;;3.55;1.65;;;;;;;;;;5033403;28;20730;-64
2022/07/12 10:11:56;;;;;;;4.55;1.70;;;;;;;;;;5032535;28;20675;-64
2022/07/12 10:14:21;;;;;;;4.45;1.60;;;;;;;;;;5032681;28;20207;-64
2022/07/12 10:16:47;;;;;;;2.75;1.63;;;;;;;;;;5015667;28;20686;-64
2022/07/12 10:19:28;;;;;;;3.28;2.03;;;;;;;;;;5032075;28;20386;-65
2022/07/12 10:21:54;;;;;;;2.72;1.65;;;;;;;;;;5033214;28;20303;-64
2022/07/12 10:24:31;;;;;;;4.10;1.38;;;;;;;;;;5032756;28;20647;-64
2022/07/12 10:26:58;;;;;;;2.63;1.48;;;;;;;;;;5032398;28;20257;-64
2022/07/12 10:29:24;;;;;;;3.35;0.90;;;;;;;;;;5032768;28;20301;-63
2022/07/12 10:31:49;;;;;;;1.17;0.90;;;;;;;;;;5033511;28;20291;-64
2022/07/12 10:34:21;;;;;;;4.95;1.55;;;;;;;;;;5031634;28;20634;-64
2022/07/12 10:36:54;;;;;;;2.25;0.70;;;;;;;;;;5032739;28;20219;-63
2022/07/12 10:39:19;;;;;;;2.30;0.65;;;;;;;;;;5032552;28;20218;-64
2022/07/12 10:41:44;;;;;;;0.73;0.73;;;;;;;;;;5014677;28;20207;-63
2022/07/12 10:44:10;;;;;;;1.73;0.70;;;;;;;;;;5014769;28;20219;-63
2022/07/12 10:46:36;;;;;;;1.10;0.68;;;;;;;;;;5032854;28;20212;-63
2022/07/12 10:49:21;;;;;;;0.82;0.70;;;;;;;;;;5031943;28;20211;-64
2022/07/12 10:52:05;;;;;;;2.33;0.93;;;;;;;;;;5032691;28;20631;-63
2022/07/12 10:54:31;;;;;;;3.00;0.50;;;;;;;;;;5039368;28;20212;-63
2022/07/12 10:56:57;;;;;;;2.15;0.57;;;;;;;;;;5040203;28;20216;-63
2022/07/12 10:59:22;;;;;;;1.60;0.60;;;;;;;;;;5032326;28;20218;-63
2022/07/12 11:01:48;;;;;;;1.40;0.45;;;;;;;;;;5014269;28;20215;-63
2022/07/12 11:04:14;;;;;;;1.33;0.68;;;;;;;;;;5032118;28;20231;-63
2022/07/12 11:06:40;;;;;;;0.40;0.40;;;;;;;;;;5032465;28;20203;-63
2022/07/12 11:09:11;;;;;;;0.95;0.60;;;;;;;;;;5031555;28;20211;-64
2022/07/12 11:11:44;;;;;;;1.63;0.70;;;;;;;;;;5032397;28;20207;-63
2022/07/12 11:14:09;;;;;;;0.80;0.60;;;;;;;;;;5032009;28;20547;-63
2022/07/12 11:16:42;;;;;;;1.40;0.57;;;;;;;;;;5031493;28;20246;-63
2022/07/12 11:19:07;;;;;;;2.25;0.60;;;;;;;;;;5032128;28;20222;-64
2022/07/12 11:21:32;;;;;;;1.55;0.63;;;;;;;;;;5032288;28;20208;-63
2022/07/12 11:23:58;;;;;;;1.70;0.60;;;;;;;;;;5031713;28;20261;-64
2022/07/12 11:26:23;;;;;;;1.88;0.50;;;;;;;;;;5014339;28;20655;-64
2022/07/12 11:28:49;;;;;;;2.20;0.65;;;;;;;;;;5015007;28;20222;-63
2022/07/12 11:31:15;;;;;;;2.22;0.70;;;;;;;;;;5013214;28;20280;-63
2022/07/12 11:33:41;;;;;;;1.83;1.05;;;;;;;;;;5032419;28;20203;-63
2022/07/12 11:36:07;;;;;;;2.47;1.25;;;;;;;;;;5031500;28;20246;-64
2022/07/12 11:38:32;;;;;;;2.47;1.20;;;;;;;;;;5031652;28;20223;-64
2022/07/12 11:40:59;;;;;;;3.13;0.95;;;;;;;;;;5032220;28;20678;-63
2022/07/12 11:43:25;;;;;;;2.00;1.25;;;;;;;;;;5030924;28;20265;-63
2022/07/12 11:45:50;;;;;;;2.85;1.10;;;;;;;;;;5032061;28;20207;-64
2022/07/12 11:48:16;;;;;;;4.35;0.95;;;;;;;;;;5031849;28;20268;-63
2022/07/12 11:50:42;;;;;;;3.35;1.30;;;;;;;;;;5031559;28;20763;-63
2022/07/12 11:53:14;;;;;;;4.30;1.35;;;;;;;;;;5031311;28;20576;-64
2022/07/12 11:55:42;;;;;;;2.97;0.90;;;;;;;;;;5014421;28;20658;-63
2022/07/12 11:58:07;;;;;;;2.83;1.20;;;;;;;;;;5030420;28;20277;-65
2022/07/12 12:00:32;;;;;;;2.88;0.90;;;;;;;;;;5032197;28;20204;-63
2022/07/12 12:02:58;;;;;;;4.45;0.73;;;;;;;;;;5032058;28;20212;-64
2022/07/12 12:05:23;;;;;;;1.98;0.80;;;;;;;;;;5030739;28;20219;-63
2022/07/12 12:07:48;;;;;;;1.55;0.90;;;;;;;;;;5033262;28;20238;-63
2022/07/12 12:10:14;;;;;;;2.28;0.88;;;;;;;;;;5035045;28;20239;-64
2022/07/12 12:12:41;;;;;;;7.03;1.30;;;;;;;;;;5034741;28;20219;-63
2022/07/12 12:15:08;;;;;;;4.07;1.30;;;;;;;;;;5035176;28;20204;-64
2022/07/12 12:17:33;;;;;;;3.40;1.00;;;;;;;;;;5035213;28;20219;-64
2022/07/12 12:20:07;;;;;;;6.18;1.23;;;;;;;;;;5034953;28;20254;-64
2022/07/12 12:22:33;;;;;;;2.75;1.00;;;;;;;;;;5017355;28;20237;-64
2022/07/12 12:25:00;;;;;;;1.65;1.00;;;;;;;;;;5035749;28;20215;-63
2022/07/12 12:27:25;;;;;;;2.85;1.20;;;;;;;;;;5034272;28;20675;-63
2022/07/12 12:29:51;;;;;;;2.90;1.40;;;;;;;;;;5035032;28;20295;-64
2022/07/12 12:32:17;;;;;;;2.67;1.60;;;;;;;;;;5035245;28;20667;-63
2022/07/12 12:35:02;;;;;;;6.30;1.30;;;;;;;;;;5034641;28;20234;-64
2022/07/12 12:37:28;;;;;;;2.00;1.50;;;;;;;;;;5042726;28;20226;-63
2022/07/12 12:39:53;;;;;;;6.53;1.73;;;;;;;;;;5034221;28;20211;-64
2022/07/12 12:42:25;;;;;;;3.63;1.30;;;;;;;;;;5034883;28;20224;-63
2022/07/12 12:44:50;;;;;;;3.20;1.17;;;;;;;;;;5034979;28;20705;-64
2022/07/12 12:47:30;;;;;;;2.20;0.98;;;;;;;;;;5016291;28;20212;-64
2022/07/12 12:49:57;;;;;;;2.40;1.00;;;;;;;;;;5035066;28;20736;-63
2022/07/12 12:52:22;;;;;;;3.83;1.10;;;;;;;;;;5034335;28;20211;-63
2022/07/12 12:54:47;;;;;;;3.42;1.58;;;;;;;;;;5034123;28;20220;-63
2022/07/12 12:57:13;;;;;;;6.70;1.60;;;;;;;;;;5034397;28;20220;-64
2022/07/12 12:59:38;;;;;;;3.45;1.80;;;;;;;;;;5034769;28;20269;-63
2022/07/12 13:02:04;;;;;;;3.20;1.70;;;;;;;;;;5033844;28;20231;-64
2022/07/12 13:04:30;;;;;;;4.35;2.13;;;;;;;;;;5034461;28;20273;-64
2022/07/12 13:06:56;;;;;;;3.72;1.63;;;;;;;;;;5034809;28;20199;-63
2022/07/12 13:09:21;;;;;;;4.13;1.98;;;;;;;;;;5033228;28;20643;-64
2022/07/12 13:11:47;;;;;;;6.85;2.28;;;;;;;;;;5034706;28;20672;-63
2022/07/12 13:14:12;;;;;;;2.70;1.60;;;;;;;;;;5033771;28;20238;-64
2022/07/12 13:16:39;;;;;;;2.15;1.67;;;;;;;;;;5034001;28;20219;-63
2022/07/12 13:19:05;;;;;;;4.18;1.80;;;;;;;;;;5033287;28;20219;-63
2022/07/12 13:21:30;;;;;;;5.15;1.55;;;;;;;;;;5034434;28;20265;-63
2022/07/12 13:23:55;;;;;;;4.05;1.85;;;;;;;;;;5033399;28;20207;-62
2022/07/12 13:26:21;;;;;;;2.45;1.60;;;;;;;;;;5034239;28;20214;-62
2022/07/12 13:28:46;;;;;;;2.58;2.10;;;;;;;;;;5016207;28;20215;-63
2022/07/12 13:31:11;;;;;;;3.70;1.60;;;;;;;;;;5014434;28;20223;-63
2022/07/12 13:33:36;;;;;;;6.93;1.60;;;;;;;;;;5017809;28;20228;-63
2022/07/12 13:36:02;;;;;;;10.93;2.60;;;;;;;;;;4998881;28;20307;-64
2022/07/12 13:38:27;;;;;;;5.32;2.15;;;;;;;;;;5016100;28;20389;-63
2022/07/12 13:40:53;;;;;;;2.28;1.60;;;;;;;;;;5022349;28;20571;-62
2022/07/12 13:43:18;;;;;;;1.83;1.40;;;;;;;;;;5007307;28;20223;-63
2022/07/12 13:45:44;;;;;;;4.38;1.88;;;;;;;;;;5008605;28;20208;-63
2022/07/12 13:48:09;;;;;;;4.65;2.15;;;;;;;;;;5008084;28;20734;-64
2022/07/12 13:50:35;;;;;;;2.72;1.60;;;;;;;;;;5018190;28;20207;-63
2022/07/12 13:53:00;;;;;;;2.53;1.73;;;;;;;;;;5027541;28;20220;-63
2022/07/12 13:55:25;;;;;;;3.42;2.50;;;;;;;;;;5024575;28;20216;-63
2022/07/12 13:57:51;;;;;;;2.30;1.45;;;;;;;;;;5019605;28;20212;-63
2022/07/12 14:00:16;;;;;;;3.08;1.52;;;;;;;;;;5019057;28;20323;-63
2022/07/12 14:02:48;;;;;;;4.20;1.92;;;;;;;;;;5021036;28;20211;-63
2022/07/12 14:05:13;;;;;;;4.15;1.77;;;;;;;;;;5025580;28;20232;-63
2022/07/12 14:07:39;;;;;;;4.07;2.05;;;;;;;;;;5016487;28;20213;-63
2022/07/12 14:10:05;;;;;;;5.07;1.90;;;;;;;;;;5007467;28;20212;-63
2022/07/12 14:12:30;;;;;;;4.97;2.55;;;;;;;;;;5007775;28;20224;-63
2022/07/12 14:15:14;;;;;;;4.60;1.90;;;;;;;;;;5008060;28;20620;-63
2022/07/12 14:17:41;;;;;;;3.40;1.80;;;;;;;;;;5025602;28;20224;-63
2022/07/12 14:20:07;;;;;;;2.28;1.27;;;;;;;;;;5000305;28;20226;-64
2022/07/12 14:22:33;;;;;;;2.25;1.30;;;;;;;;;;5001737;28;20655;-62
2022/07/12 14:24:58;;;;;;;2.63;1.10;;;;;;;;;;5019171;28;20204;-63
2022/07/12 14:27:23;;;;;;;2.88;1.20;;;;;;;;;;5011112;28;20762;-63
2022/07/12 14:29:48;;;;;;;4.68;1.52;;;;;;;;;;5008008;28;20217;-63
2022/07/12 14:32:14;;;;;;;3.42;1.42;;;;;;;;;;5004971;28;20671;-63
2022/07/12 14:34:40;;;;;;;2.63;1.60;;;;;;;;;;5007515;28;20706;-62
2022/07/12 14:37:05;;;;;;;2.35;1.48;;;;;;;;;;5007117;28;20220;-63
2022/07/12 14:39:31;;;;;;;4.80;1.35;;;;;;;;;;5006815;28;21107;-63
2022/07/12 14:41:56;;;;;;;4.45;1.42;;;;;;;;;;5001844;28;20219;-63
2022/07/12 14:44:21;;;;;;;5.80;2.00;;;;;;;;;;5012811;28;20209;-63
2022/07/12 14:46:47;;;;;;;5.93;1.70;;;;;;;;;;4998466;28;20351;-63
2022/07/12 14:49:12;;;;;;;3.10;1.63;;;;;;;;;;5004061;28;20569;-64
2022/07/12 14:51:37;;;;;;;2.47;1.30;;;;;;;;;;5007520;28;20216;-63